< < Back
Terminal Aerodrome Forecast


Current Version              Previous Versions:   1  2  3  4  5  6  7  8  9  

Terminal Aerodrome Forecast

599
FTUS42 KFFC 012327
TAFFTY
TAF
KFTY 012327Z 0200/0224 09003KT 6SM BR OVC007
     FM020200 00000KT 3SM -DZ OVC005
     FM020500 00000KT 4SM -RA OVC007
     FM020700 VRB03KT 1SM -DZ OVC004
     FM021500 28004KT 4SM -RA OVC007
     FM021900 31005KT P6SM VCSH BKN012
     FM022300 34003KT 6SM BR OVC009=



Latest METAR

521
SAUS70 KWBC 020500 RRF
MTRFTY
METAR KFTY 020453Z 00000KT 5SM BR OVC005 08/06 A3036 RMK AO2 SLP282
T00780061 400830028


USA.gov is the U.S. government's official web portal to all federal, state and local government web resources and services.